createdAt,value
2023-11-15T09:05:09.343Z,11176.00
2023-11-15T09:06:10.464Z,10632.00
2023-11-15T09:07:10.519Z,8868.00
2023-11-15T09:08:10.750Z,7788.00
2023-11-15T09:09:10.755Z,7200.00
2023-11-15T09:10:10.784Z,7756.00
2023-11-15T09:11:10.859Z,7600.00
2023-11-15T09:12:10.976Z,6208.00
2023-11-15T09:13:11.034Z,4676.00
2023-11-15T09:14:11.104Z,4620.00
2023-11-15T09:15:11.167Z,5224.00
2023-11-15T09:16:12.341Z,5604.00
2023-11-15T09:17:11.327Z,5856.00
2023-11-15T09:18:11.508Z,6360.00
2023-11-15T09:19:11.555Z,6688.00
2023-11-15T09:20:11.617Z,6272.00
2023-11-15T09:21:11.711Z,5316.00
2023-11-15T09:22:11.749Z,4540.00
2023-11-15T09:23:18.724Z,4056.00
2023-11-15T09:24:11.965Z,3664.00
2023-11-15T09:25:11.992Z,3316.00
2023-11-15T09:26:12.084Z,2900.00
2023-11-15T09:27:14.185Z,2428.00
2023-11-15T09:28:12.233Z,2076.00
2023-11-15T10:56:33.223Z,3596.00
2023-11-15T10:57:34.322Z,4480.00
2023-11-15T10:58:34.384Z,5812.00
2023-11-15T10:59:34.497Z,6648.00
2023-11-15T11:00:34.554Z,7644.00
2023-11-15T11:01:34.697Z,9428.00
2023-11-15T11:02:34.840Z,9744.00
2023-11-15T11:03:34.924Z,8272.00
2023-11-15T11:04:35.026Z,8516.00
2023-11-15T11:05:35.028Z,8888.00
2023-11-15T11:06:35.107Z,8680.00
2023-11-15T11:07:35.162Z,9164.00
2023-11-15T11:08:35.269Z,8520.00
2023-11-15T11:09:35.331Z,7096.00
2023-11-15T11:10:35.382Z,8548.00
2023-11-15T11:11:35.565Z,8592.00
2023-11-15T11:12:35.564Z,8400.00
2023-11-15T11:13:35.669Z,8996.00
2023-11-15T11:14:35.745Z,9888.00
2023-11-15T11:15:35.861Z,10444.00
2023-11-15T11:16:36.334Z,11872.00
2023-11-15T11:17:37.049Z,15456.00
2023-11-15T11:18:36.071Z,15776.00
2023-11-15T11:19:36.128Z,11900.00
2023-11-15T11:20:36.248Z,8388.00
2023-11-15T11:21:36.283Z,6752.00
2023-11-15T11:22:36.404Z,5316.00
2023-11-15T11:23:36.845Z,4312.00
2023-11-15T11:24:36.493Z,4048.00
2023-11-15T11:25:36.585Z,6788.00
2023-11-15T11:26:36.844Z,12016.00
2023-11-15T11:27:36.756Z,10656.00
2023-11-15T11:28:36.827Z,10444.00
2023-11-15T11:29:36.969Z,11184.00
2023-11-15T11:30:36.999Z,8788.00
2023-11-15T11:31:37.110Z,9356.00
2023-11-15T11:32:37.337Z,11692.00
2023-11-15T11:33:37.316Z,8456.00
2023-11-15T11:34:37.309Z,8104.00
2023-11-15T11:35:37.435Z,8996.00
2023-11-15T11:36:37.461Z,12332.00
2023-11-15T11:37:37.561Z,12168.00
2023-11-15T11:38:37.704Z,12420.00
2023-11-15T11:39:37.719Z,8600.00
2023-11-15T11:40:37.803Z,7964.00
2023-11-15T11:41:37.914Z,8276.00
2023-11-15T11:42:37.945Z,9012.00
2023-11-15T11:43:38.071Z,7552.00
2023-11-15T11:44:38.122Z,9424.00
2023-11-15T11:45:38.204Z,10916.00
2023-11-15T11:46:38.289Z,11496.00
2023-11-15T11:47:38.454Z,11788.00
2023-11-15T11:48:38.514Z,12560.00
2023-11-15T11:49:38.508Z,14456.00
2023-11-15T11:50:38.616Z,17056.00
2023-11-15T11:51:38.639Z,14808.00
2023-11-15T11:52:38.701Z,13592.00
2023-11-15T11:53:38.839Z,13600.00
2023-11-15T11:54:38.924Z,11828.00
2023-11-15T11:55:39.008Z,13308.00
2023-11-15T11:56:39.108Z,17216.00
2023-11-15T11:57:39.157Z,13908.00
2023-11-15T11:58:39.319Z,12692.00
2023-11-15T11:59:39.316Z,11920.00
2023-11-15T12:00:39.429Z,12880.00
2023-11-15T12:01:39.500Z,12952.00
2023-11-15T12:02:39.604Z,16448.00
2023-11-15T12:03:39.827Z,13436.00
2023-11-15T12:04:39.790Z,15552.00
2023-11-15T12:05:42.204Z,14672.00
2023-11-15T12:06:39.869Z,14076.00
2023-11-15T12:07:39.976Z,12828.00
2023-11-15T12:08:40.197Z,12196.00
2023-11-15T12:09:40.125Z,11912.00
2023-11-15T12:10:40.227Z,8668.00
2023-11-15T12:11:40.333Z,7312.00
2023-11-15T12:12:40.360Z,8288.00
2023-11-15T12:13:40.449Z,9116.00
2023-11-15T12:14:40.576Z,7784.00
2023-11-15T12:15:40.646Z,6252.00
2023-11-15T12:16:40.777Z,5728.00
2023-11-15T12:17:41.033Z,5968.00
2023-11-15T12:18:40.903Z,7120.00
2023-11-15T12:19:40.993Z,7708.00
2023-11-15T12:20:41.723Z,7512.00
2023-11-15T12:21:41.107Z,8136.00
2023-11-15T12:22:41.192Z,9320.00
2023-11-15T12:23:41.296Z,9772.00
2023-11-15T12:24:41.349Z,8288.00
2023-11-15T12:25:41.436Z,8228.00
2023-11-15T12:26:41.526Z,10608.00
2023-11-15T12:27:41.565Z,11468.00
2023-11-15T12:28:41.651Z,11212.00
2023-11-15T12:29:41.808Z,8864.00
2023-11-15T12:30:41.868Z,8036.00
2023-11-15T12:31:41.897Z,9804.00
2023-11-15T12:32:42.086Z,10616.00
2023-11-15T12:33:42.080Z,11092.00
2023-11-15T12:34:42.153Z,11356.00
2023-11-15T12:35:42.240Z,9536.00
2023-11-15T12:36:42.326Z,9440.00
2023-11-15T12:37:42.400Z,9344.00
2023-11-15T12:38:42.472Z,10268.00
2023-11-15T12:39:42.553Z,9916.00
2023-11-15T12:40:42.651Z,7044.00
2023-11-15T12:41:42.747Z,5844.00
2023-11-15T12:42:42.773Z,5544.00
2023-11-15T12:43:42.876Z,5940.00
2023-11-15T12:44:42.987Z,5540.00
2023-11-15T12:45:43.040Z,5776.00
2023-11-15T12:46:43.894Z,6820.00
2023-11-15T12:47:43.278Z,7232.00
2023-11-15T12:48:43.314Z,7392.00
2023-11-15T12:49:43.375Z,7452.00
2023-11-15T12:50:43.449Z,7736.00
2023-11-15T12:51:43.567Z,7624.00
2023-11-15T12:52:47.897Z,7348.00
2023-11-15T12:53:43.730Z,7488.00
2023-11-15T12:54:43.749Z,7144.00
2023-11-15T12:55:43.826Z,5228.00
2023-11-15T12:56:43.962Z,5440.00
2023-11-15T12:57:43.981Z,6196.00
2023-11-15T12:58:44.138Z,7996.00
2023-11-15T12:59:44.255Z,7936.00
2023-11-15T13:00:44.312Z,6700.00
2023-11-15T13:01:44.425Z,6792.00
2023-11-15T13:02:44.571Z,8112.00
2023-11-15T13:03:44.642Z,8992.00
2023-11-15T13:04:44.599Z,8600.00
2023-11-15T13:05:44.700Z,8100.00
2023-11-15T13:06:44.769Z,7576.00
2023-11-15T13:07:44.874Z,6772.00
2023-11-15T13:08:45.016Z,5432.00
2023-11-15T13:09:45.007Z,5060.00
2023-11-15T13:10:45.067Z,5112.00
2023-11-15T13:11:45.190Z,5596.00
2023-11-15T13:12:45.210Z,6256.00
2023-11-15T13:13:45.283Z,5792.00
2023-11-15T13:14:45.416Z,5088.00
2023-11-15T13:15:45.471Z,4432.00
2023-11-15T13:16:45.666Z,4252.00
2023-11-15T13:17:45.722Z,4160.00
2023-11-15T13:18:45.749Z,3752.00
2023-11-15T13:19:45.761Z,3708.00
2023-11-15T13:20:45.857Z,4352.00
2023-11-15T13:21:45.950Z,5108.00
2023-11-15T13:22:46.024Z,5508.00
2023-11-15T13:23:46.198Z,5780.00
2023-11-15T13:24:46.254Z,5840.00
2023-11-15T13:25:46.296Z,5828.00
2023-11-15T13:26:46.397Z,5300.00
2023-11-15T13:27:46.414Z,4172.00
2023-11-15T13:28:46.506Z,3036.00
2023-11-15T13:29:46.603Z,2100.00
2023-11-15T13:30:46.672Z,1464.00
2023-11-15T13:31:46.734Z,1172.00
2023-11-15T13:32:46.948Z,1424.00
2023-11-15T13:33:47.067Z,1428.00
2023-11-15T13:34:47.011Z,1852.00
2023-11-15T13:35:47.147Z,2100.00
2023-11-15T13:36:47.134Z,2516.00
2023-11-15T13:37:47.223Z,3172.00
2023-11-15T13:38:47.438Z,3848.00
2023-11-15T13:39:47.346Z,4864.00
2023-11-15T13:40:47.431Z,5352.00
2023-11-15T13:41:47.603Z,6256.00
2023-11-15T13:42:49.712Z,5824.00
2023-11-15T13:43:47.666Z,6164.00
2023-11-15T13:44:47.766Z,5092.00
2023-11-15T13:45:47.826Z,4624.00
2023-11-15T13:46:47.938Z,5140.00
2023-11-15T13:47:48.073Z,9132.00
2023-11-15T13:48:48.120Z,9768.00
2023-11-15T13:49:48.137Z,10168.00
2023-11-15T13:50:48.276Z,11948.00
2023-11-15T13:51:48.310Z,11704.00
2023-11-15T13:52:48.395Z,10272.00
2023-11-15T13:53:48.507Z,9868.00
2023-11-15T13:54:48.530Z,9348.00
2023-11-15T13:55:48.642Z,6708.00
2023-11-15T13:56:48.734Z,6236.00
2023-11-15T13:57:48.774Z,6536.00
2023-11-15T13:58:48.839Z,6276.00
2023-11-15T13:59:48.952Z,6252.00
2023-11-15T14:00:48.982Z,6708.00
2023-11-15T14:01:49.048Z,6248.00
2023-11-15T14:02:49.249Z,6652.00
2023-11-15T14:03:49.310Z,6812.00
2023-11-15T14:04:49.316Z,6856.00
2023-11-15T14:05:49.427Z,6740.00
2023-11-15T14:06:49.490Z,6676.00
2023-11-15T14:07:49.569Z,6660.00
2023-11-15T14:08:56.099Z,6156.00
2023-11-15T14:09:49.749Z,5052.00
2023-11-15T14:10:49.809Z,4292.00
2023-11-15T14:11:49.896Z,3484.00
2023-11-15T14:12:49.968Z,3148.00
2023-11-15T14:13:50.111Z,3080.00
2023-11-15T14:14:50.105Z,3352.00
2023-11-15T14:15:50.176Z,3468.00
2023-11-15T14:16:50.233Z,3284.00
2023-11-15T14:17:50.449Z,3308.00
2023-11-15T14:18:50.856Z,3740.00
2023-11-15T14:19:50.492Z,4116.00
2023-11-15T14:20:50.575Z,4128.00
2023-11-15T14:21:50.654Z,3920.00
2023-11-15T14:22:50.740Z,3632.00
2023-11-15T14:23:50.849Z,3248.00
2023-11-15T14:24:50.889Z,3048.00
2023-11-15T14:25:50.961Z,3128.00
2023-11-15T14:26:51.080Z,3344.00
2023-11-15T14:27:55.286Z,3620.00
2023-11-15T14:28:51.220Z,3284.00
2023-11-15T14:29:51.280Z,2600.00
2023-11-15T14:30:51.346Z,2368.00
2023-11-15T14:31:51.447Z,2308.00
2023-11-15T14:32:51.717Z,2156.00
2023-11-15T14:33:51.606Z,1988.00
2023-11-15T14:34:51.711Z,1796.00
2023-11-15T14:35:51.787Z,1664.00
2023-11-15T14:36:51.811Z,1560.00
2023-11-15T14:37:51.928Z,1496.00
2023-11-15T14:38:53.976Z,1532.00
2023-11-15T14:39:52.087Z,1620.00
2023-11-15T14:40:52.178Z,1520.00
2023-11-15T14:41:52.264Z,1452.00
2023-11-15T14:42:52.309Z,1524.00
2023-11-15T14:43:52.404Z,1512.00
2023-11-15T14:44:53.006Z,1420.00
2023-11-15T14:45:52.565Z,1304.00
2023-11-15T14:46:52.666Z,1248.00
2023-11-15T14:47:52.869Z,1232.00
2023-11-15T14:48:52.913Z,1208.00
2023-11-15T14:49:52.937Z,1156.00
2023-11-15T14:50:52.989Z,1004.00
2023-11-15T14:51:53.040Z,892.00
2023-11-15T14:52:53.111Z,820.00
